Hauptseite
METAR-TAF:

METAR-TAF

Flughäfen :

Flughafen Dundee

Dundee, Schottland

Breite: 56-27N, Länge: 003-01W, Höhe: 4 m

Beobachtung

Neuester Wetterbericht von vor 31 Minuten, um 14:50 UTC
Wind 14 kt aus Ost
Temperatur 16°C
Luftfeuchtigkeit 72%
Luftdruck 1023 hPa
Sichtweite 10 km oder mehr
keine Wolken unter 1500 m und keine Kumulonimbus oder Gewitterwolken

METAR: EGPN 271450Z 09014KT CAVOK 16/11 Q1023

Zeit: 16:21 (15:21 UTC)


TAF: fehlend

Wetterbeobachtungen und Prognosen von mehr als 4000 Flughäfen (METAR und TAF Bericht).

Die verfügbaren Stationen werden durch gelbe und rote Markierungen auf der Karte dargestellt.

Führen Sie die Maus auf sie, um den Namen der Station zu sehen.

Darauf klicken, um die Beobachtung von Wetterbeobachtungen und Prognosen zu sehen.

Um die Karte zu ändern : klicken Sie auf den grünen Tasten mit einem schwarzen Kreuz Zum Vergrößern, auf den grünen Button mit einem Gedankenstrich zu verkleinern, oder auf die grünen Pfeile für benachbarte Karten.


METAR-TAF: